sensor_id;sensor_type;location;lat;lon;timestamp;P1;durP1;ratioP1;P2;durP2;ratioP2
1416;SDS011;703;51.162;13.574;2024-02-04T00:01:32;3.27;;;2.97;;
1416;SDS011;703;51.162;13.574;2024-02-04T00:03:58;2.60;;;2.40;;
1416;SDS011;703;51.162;13.574;2024-02-04T00:06:24;2.60;;;2.40;;
1416;SDS011;703;51.162;13.574;2024-02-04T00:08:50;3.33;;;3.07;;
1416;SDS011;703;51.162;13.574;2024-02-04T00:11:16;2.80;;;2.37;;
1416;SDS011;703;51.162;13.574;2024-02-04T00:13:42;2.70;;;2.60;;
1416;SDS011;703;51.162;13.574;2024-02-04T00:16:08;3.20;;;2.93;;
1416;SDS011;703;51.162;13.574;2024-02-04T00:18:33;3.87;;;3.57;;
1416;SDS011;703;51.162;13.574;2024-02-04T00:20:59;2.80;;;2.70;;
1416;SDS011;703;51.162;13.574;2024-02-04T00:23:25;2.97;;;2.77;;
1416;SDS011;703;51.162;13.574;2024-02-04T00:25:51;3.50;;;3.20;;
1416;SDS011;703;51.162;13.574;2024-02-04T00:28:17;3.33;;;3.13;;
1416;SDS011;703;51.162;13.574;2024-02-04T00:30:45;3.83;;;3.53;;
1416;SDS011;703;51.162;13.574;2024-02-04T00:33:11;3.77;;;3.50;;
1416;SDS011;703;51.162;13.574;2024-02-04T00:35:37;3.87;;;3.50;;
1416;SDS011;703;51.162;13.574;2024-02-04T00:38:03;4.03;;;3.20;;
1416;SDS011;703;51.162;13.574;2024-02-04T00:40:29;4.17;;;3.83;;
1416;SDS011;703;51.162;13.574;2024-02-04T00:42:55;3.50;;;3.10;;
1416;SDS011;703;51.162;13.574;2024-02-04T00:45:21;4.93;;;3.83;;
1416;SDS011;703;51.162;13.574;2024-02-04T00:47:46;2.53;;;2.43;;
1416;SDS011;703;51.162;13.574;2024-02-04T00:50:12;4.17;;;3.93;;
1416;SDS011;703;51.162;13.574;2024-02-04T00:52:38;3.60;;;3.40;;
1416;SDS011;703;51.162;13.574;2024-02-04T00:55:04;3.80;;;3.60;;
1416;SDS011;703;51.162;13.574;2024-02-04T00:57:30;3.80;;;3.40;;
1416;SDS011;703;51.162;13.574;2024-02-04T00:59:56;2.80;;;2.60;;
1416;SDS011;703;51.162;13.574;2024-02-04T01:02:22;3.83;;;3.53;;
1416;SDS011;703;51.162;13.574;2024-02-04T01:04:50;4.10;;;3.80;;
1416;SDS011;703;51.162;13.574;2024-02-04T01:07:17;3.77;;;3.57;;
1416;SDS011;703;51.162;13.574;2024-02-04T01:09:43;3.63;;;3.33;;
1416;SDS011;703;51.162;13.574;2024-02-04T01:12:08;3.50;;;3.30;;
1416;SDS011;703;51.162;13.574;2024-02-04T01:14:34;3.23;;;2.63;;
1416;SDS011;703;51.162;13.574;2024-02-04T01:17:00;3.80;;;3.50;;
1416;SDS011;703;51.162;13.574;2024-02-04T01:19:26;4.43;;;4.13;;
1416;SDS011;703;51.162;13.574;2024-02-04T01:21:52;4.23;;;3.93;;
1416;SDS011;703;51.162;13.574;2024-02-04T01:24:18;4.30;;;3.33;;
1416;SDS011;703;51.162;13.574;2024-02-04T01:26:44;4.50;;;3.90;;
1416;SDS011;703;51.162;13.574;2024-02-04T01:29:10;3.70;;;3.40;;
1416;SDS011;703;51.162;13.574;2024-02-04T01:31:36;3.67;;;3.43;;
1416;SDS011;703;51.162;13.574;2024-02-04T01:34:02;3.37;;;3.13;;
1416;SDS011;703;51.162;13.574;2024-02-04T01:36:28;3.80;;;3.50;;
1416;SDS011;703;51.162;13.574;2024-02-04T01:38:55;3.20;;;3.00;;
1416;SDS011;703;51.162;13.574;2024-02-04T01:41:21;4.03;;;3.73;;
1416;SDS011;703;51.162;13.574;2024-02-04T01:43:48;5.10;;;2.80;;
1416;SDS011;703;51.162;13.574;2024-02-04T01:46:14;4.07;;;3.87;;
1416;SDS011;703;51.162;13.574;2024-02-04T01:48:40;3.90;;;3.60;;
1416;SDS011;703;51.162;13.574;2024-02-04T01:51:06;4.30;;;3.90;;
1416;SDS011;703;51.162;13.574;2024-02-04T01:53:32;3.60;;;3.40;;
1416;SDS011;703;51.162;13.574;2024-02-04T01:55:59;8.80;;;4.30;;
1416;SDS011;703;51.162;13.574;2024-02-04T01:58:25;4.30;;;2.80;;
1416;SDS011;703;51.162;13.574;2024-02-04T02:00:51;3.00;;;2.90;;
1416;SDS011;703;51.162;13.574;2024-02-04T02:03:17;4.70;;;3.47;;
1416;SDS011;703;51.162;13.574;2024-02-04T02:05:43;3.67;;;3.30;;
1416;SDS011;703;51.162;13.574;2024-02-04T02:08:09;3.47;;;3.20;;
1416;SDS011;703;51.162;13.574;2024-02-04T02:10:36;3.33;;;3.10;;
1416;SDS011;703;51.162;13.574;2024-02-04T02:13:06;3.93;;;2.90;;
1416;SDS011;703;51.162;13.574;2024-02-04T02:15:34;3.20;;;3.00;;
1416;SDS011;703;51.162;13.574;2024-02-04T02:18:05;3.93;;;3.57;;
1416;SDS011;703;51.162;13.574;2024-02-04T02:23:21;4.90;;;4.60;;
1416;SDS011;703;51.162;13.574;2024-02-04T02:25:47;3.23;;;3.03;;
1416;SDS011;703;51.162;13.574;2024-02-04T02:28:14;4.90;;;3.83;;
1416;SDS011;703;51.162;13.574;2024-02-04T02:30:40;4.53;;;4.20;;
1416;SDS011;703;51.162;13.574;2024-02-04T02:33:06;3.73;;;3.40;;
1416;SDS011;703;51.162;13.574;2024-02-04T02:35:33;4.30;;;4.00;;
1416;SDS011;703;51.162;13.574;2024-02-04T02:38:00;6.03;;;3.87;;
1416;SDS011;703;51.162;13.574;2024-02-04T02:40:36;4.30;;;3.90;;
1416;SDS011;703;51.162;13.574;2024-02-04T02:43:03;4.20;;;3.87;;
1416;SDS011;703;51.162;13.574;2024-02-04T02:45:30;4.27;;;3.87;;
1416;SDS011;703;51.162;13.574;2024-02-04T02:47:56;4.17;;;3.77;;
1416;SDS011;703;51.162;13.574;2024-02-04T02:50:23;5.40;;;4.90;;
1416;SDS011;703;51.162;13.574;2024-02-04T02:52:49;4.37;;;4.07;;
1416;SDS011;703;51.162;13.574;2024-02-04T02:55:15;7.27;;;4.90;;
1416;SDS011;703;51.162;13.574;2024-02-04T02:57:41;4.27;;;4.00;;
1416;SDS011;703;51.162;13.574;2024-02-04T03:00:07;4.93;;;4.53;;
1416;SDS011;703;51.162;13.574;2024-02-04T03:02:34;5.53;;;5.13;;
1416;SDS011;703;51.162;13.574;2024-02-04T03:05:00;5.20;;;4.70;;
1416;SDS011;703;51.162;13.574;2024-02-04T03:07:25;5.70;;;4.20;;
1416;SDS011;703;51.162;13.574;2024-02-04T03:09:52;4.57;;;4.20;;
1416;SDS011;703;51.162;13.574;2024-02-04T03:12:19;4.03;;;3.73;;
1416;SDS011;703;51.162;13.574;2024-02-04T03:14:45;6.50;;;5.90;;
1416;SDS011;703;51.162;13.574;2024-02-04T03:17:11;4.50;;;4.20;;
1416;SDS011;703;51.162;13.574;2024-02-04T03:19:38;7.03;;;6.53;;
1416;SDS011;703;51.162;13.574;2024-02-04T03:22:04;6.37;;;5.10;;
1416;SDS011;703;51.162;13.574;2024-02-04T03:24:30;3.83;;;3.60;;
1416;SDS011;703;51.162;13.574;2024-02-04T03:26:56;5.70;;;5.20;;
1416;SDS011;703;51.162;13.574;2024-02-04T03:29:22;5.13;;;4.73;;
1416;SDS011;703;51.162;13.574;2024-02-04T03:31:48;7.47;;;6.77;;
1416;SDS011;703;51.162;13.574;2024-02-04T03:34:14;6.93;;;4.40;;
1416;SDS011;703;51.162;13.574;2024-02-04T03:36:40;6.40;;;5.53;;
1416;SDS011;703;51.162;13.574;2024-02-04T03:39:06;5.10;;;4.70;;
1416;SDS011;703;51.162;13.574;2024-02-04T03:41:32;4.30;;;4.00;;
1416;SDS011;703;51.162;13.574;2024-02-04T03:43:57;8.30;;;4.70;;
1416;SDS011;703;51.162;13.574;2024-02-04T03:46:23;4.70;;;4.30;;
1416;SDS011;703;51.162;13.574;2024-02-04T03:48:49;7.27;;;4.80;;
1416;SDS011;703;51.162;13.574;2024-02-04T03:51:16;7.17;;;5.90;;
1416;SDS011;703;51.162;13.574;2024-02-04T03:53:42;7.03;;;5.93;;
1416;SDS011;703;51.162;13.574;2024-02-04T03:56:08;7.77;;;5.70;;
1416;SDS011;703;51.162;13.574;2024-02-04T03:58:34;5.07;;;4.67;;
1416;SDS011;703;51.162;13.574;2024-02-04T04:01:00;6.20;;;5.40;;
1416;SDS011;703;51.162;13.574;2024-02-04T04:03:26;6.30;;;5.77;;
1416;SDS011;703;51.162;13.574;2024-02-04T04:05:55;5.13;;;4.73;;
1416;SDS011;703;51.162;13.574;2024-02-04T04:08:21;5.97;;;5.57;;
1416;SDS011;703;51.162;13.574;2024-02-04T04:10:47;3.60;;;3.40;;
1416;SDS011;703;51.162;13.574;2024-02-04T04:13:13;4.57;;;4.17;;
1416;SDS011;703;51.162;13.574;2024-02-04T04:15:39;9.43;;;4.70;;
1416;SDS011;703;51.162;13.574;2024-02-04T04:18:06;4.83;;;4.37;;
1416;SDS011;703;51.162;13.574;2024-02-04T04:20:32;5.40;;;4.13;;
1416;SDS011;703;51.162;13.574;2024-02-04T04:22:57;5.23;;;4.83;;
1416;SDS011;703;51.162;13.574;2024-02-04T04:25:23;4.80;;;3.93;;
1416;SDS011;703;51.162;13.574;2024-02-04T04:27:49;7.03;;;6.23;;
1416;SDS011;703;51.162;13.574;2024-02-04T04:30:15;5.40;;;5.00;;
1416;SDS011;703;51.162;13.574;2024-02-04T04:32:41;4.37;;;4.07;;
1416;SDS011;703;51.162;13.574;2024-02-04T04:35:07;5.03;;;3.63;;
1416;SDS011;703;51.162;13.574;2024-02-04T04:37:33;4.57;;;4.20;;
1416;SDS011;703;51.162;13.574;2024-02-04T04:39:59;8.90;;;5.20;;
1416;SDS011;703;51.162;13.574;2024-02-04T04:42:25;11.97;;;5.57;;
1416;SDS011;703;51.162;13.574;2024-02-04T04:44:51;4.33;;;4.03;;
1416;SDS011;703;51.162;13.574;2024-02-04T04:47:17;3.90;;;3.60;;
1416;SDS011;703;51.162;13.574;2024-02-04T04:49:43;4.53;;;4.10;;
1416;SDS011;703;51.162;13.574;2024-02-04T04:52:08;4.47;;;4.07;;
1416;SDS011;703;51.162;13.574;2024-02-04T04:54:34;4.30;;;4.00;;
1416;SDS011;703;51.162;13.574;2024-02-04T04:57:00;5.27;;;4.77;;
1416;SDS011;703;51.162;13.574;2024-02-04T04:59:26;4.97;;;4.00;;
1416;SDS011;703;51.162;13.574;2024-02-04T05:01:52;3.93;;;3.63;;
1416;SDS011;703;51.162;13.574;2024-02-04T05:04:18;5.63;;;3.87;;
1416;SDS011;703;51.162;13.574;2024-02-04T05:06:44;5.40;;;5.03;;
1416;SDS011;703;51.162;13.574;2024-02-04T05:09:10;5.93;;;3.97;;
1416;SDS011;703;51.162;13.574;2024-02-04T05:11:36;5.07;;;4.67;;
1416;SDS011;703;51.162;13.574;2024-02-04T05:14:02;4.43;;;4.20;;
1416;SDS011;703;51.162;13.574;2024-02-04T05:16:28;6.40;;;4.30;;
1416;SDS011;703;51.162;13.574;2024-02-04T05:18:54;5.03;;;4.53;;
1416;SDS011;703;51.162;13.574;2024-02-04T05:21:19;4.47;;;4.07;;
1416;SDS011;703;51.162;13.574;2024-02-04T05:23:45;4.27;;;3.30;;
1416;SDS011;703;51.162;13.574;2024-02-04T05:26:11;3.83;;;3.63;;
1416;SDS011;703;51.162;13.574;2024-02-04T05:28:37;4.20;;;4.00;;
1416;SDS011;703;51.162;13.574;2024-02-04T05:31:03;3.20;;;3.00;;
1416;SDS011;703;51.162;13.574;2024-02-04T05:33:29;5.30;;;4.33;;
1416;SDS011;703;51.162;13.574;2024-02-04T05:35:55;4.47;;;3.90;;
1416;SDS011;703;51.162;13.574;2024-02-04T05:38:21;3.87;;;3.57;;
1416;SDS011;703;51.162;13.574;2024-02-04T05:40:47;3.90;;;3.70;;
1416;SDS011;703;51.162;13.574;2024-02-04T05:43:13;3.87;;;3.67;;
1416;SDS011;703;51.162;13.574;2024-02-04T05:45:39;3.20;;;3.00;;
1416;SDS011;703;51.162;13.574;2024-02-04T05:48:08;4.83;;;4.40;;
1416;SDS011;703;51.162;13.574;2024-02-04T05:50:34;3.70;;;3.47;;
1416;SDS011;703;51.162;13.574;2024-02-04T05:53:00;3.80;;;3.60;;
1416;SDS011;703;51.162;13.574;2024-02-04T05:55:26;5.47;;;3.90;;
1416;SDS011;703;51.162;13.574;2024-02-04T05:57:52;3.60;;;3.30;;
1416;SDS011;703;51.162;13.574;2024-02-04T06:00:18;4.43;;;4.03;;
1416;SDS011;703;51.162;13.574;2024-02-04T06:02:44;4.83;;;4.53;;
1416;SDS011;703;51.162;13.574;2024-02-04T06:05:13;8.27;;;3.40;;
1416;SDS011;703;51.162;13.574;2024-02-04T06:07:39;3.80;;;3.30;;
1416;SDS011;703;51.162;13.574;2024-02-04T06:10:08;4.37;;;4.07;;
1416;SDS011;703;51.162;13.574;2024-02-04T06:12:34;4.40;;;4.10;;
1416;SDS011;703;51.162;13.574;2024-02-04T06:15:00;5.00;;;4.70;;
1416;SDS011;703;51.162;13.574;2024-02-04T06:17:26;4.57;;;4.17;;
1416;SDS011;703;51.162;13.574;2024-02-04T06:19:52;5.47;;;4.60;;
1416;SDS011;703;51.162;13.574;2024-02-04T06:22:18;4.00;;;3.70;;
1416;SDS011;703;51.162;13.574;2024-02-04T06:24:45;3.87;;;3.47;;
1416;SDS011;703;51.162;13.574;2024-02-04T06:27:11;5.00;;;2.97;;
1416;SDS011;703;51.162;13.574;2024-02-04T06:29:37;4.17;;;3.87;;
1416;SDS011;703;51.162;13.574;2024-02-04T06:32:04;4.60;;;4.30;;
1416;SDS011;703;51.162;13.574;2024-02-04T06:34:31;4.03;;;3.73;;
1416;SDS011;703;51.162;13.574;2024-02-04T06:36:57;4.20;;;3.90;;
1416;SDS011;703;51.162;13.574;2024-02-04T06:39:23;4.30;;;3.90;;
1416;SDS011;703;51.162;13.574;2024-02-04T06:41:48;3.50;;;3.30;;
1416;SDS011;703;51.162;13.574;2024-02-04T06:44:14;4.17;;;3.37;;
1416;SDS011;703;51.162;13.574;2024-02-04T06:46:40;4.40;;;4.00;;
1416;SDS011;703;51.162;13.574;2024-02-04T06:49:06;3.30;;;3.10;;
1416;SDS011;703;51.162;13.574;2024-02-04T06:51:32;4.17;;;3.77;;
1416;SDS011;703;51.162;13.574;2024-02-04T06:53:58;4.90;;;4.53;;
1416;SDS011;703;51.162;13.574;2024-02-04T06:56:25;3.97;;;3.57;;
1416;SDS011;703;51.162;13.574;2024-02-04T06:58:51;4.10;;;3.87;;
1416;SDS011;703;51.162;13.574;2024-02-04T07:01:17;3.63;;;3.33;;
1416;SDS011;703;51.162;13.574;2024-02-04T07:03:43;3.40;;;3.20;;
1416;SDS011;703;51.162;13.574;2024-02-04T07:06:10;3.83;;;3.50;;
1416;SDS011;703;51.162;13.574;2024-02-04T07:08:36;3.80;;;3.60;;
1416;SDS011;703;51.162;13.574;2024-02-04T07:11:02;3.60;;;3.30;;
1416;SDS011;703;51.162;13.574;2024-02-04T07:13:28;6.40;;;5.90;;
1416;SDS011;703;51.162;13.574;2024-02-04T07:15:54;3.00;;;2.80;;
1416;SDS011;703;51.162;13.574;2024-02-04T07:18:20;2.83;;;2.67;;
1416;SDS011;703;51.162;13.574;2024-02-04T07:20:47;3.30;;;3.10;;
1416;SDS011;703;51.162;13.574;2024-02-04T07:23:13;3.30;;;3.10;;
1416;SDS011;703;51.162;13.574;2024-02-04T07:25:39;3.13;;;2.83;;
1416;SDS011;703;51.162;13.574;2024-02-04T07:28:05;3.57;;;3.30;;
1416;SDS011;703;51.162;13.574;2024-02-04T07:30:30;3.57;;;3.37;;
1416;SDS011;703;51.162;13.574;2024-02-04T07:32:56;4.13;;;3.73;;
1416;SDS011;703;51.162;13.574;2024-02-04T07:35:23;8.60;;;3.03;;
1416;SDS011;703;51.162;13.574;2024-02-04T07:37:49;3.73;;;3.43;;
1416;SDS011;703;51.162;13.574;2024-02-04T07:40:15;3.20;;;3.00;;
1416;SDS011;703;51.162;13.574;2024-02-04T07:42:41;3.07;;;2.87;;
1416;SDS011;703;51.162;13.574;2024-02-04T07:45:07;3.00;;;2.80;;
1416;SDS011;703;51.162;13.574;2024-02-04T07:47:37;2.90;;;2.70;;
1416;SDS011;703;51.162;13.574;2024-02-04T07:50:03;3.33;;;3.13;;
1416;SDS011;703;51.162;13.574;2024-02-04T07:52:29;3.53;;;3.23;;
1416;SDS011;703;51.162;13.574;2024-02-04T07:54:55;3.13;;;2.67;;
1416;SDS011;703;51.162;13.574;2024-02-04T07:57:21;2.97;;;2.80;;
1416;SDS011;703;51.162;13.574;2024-02-04T07:59:46;2.10;;;2.00;;
1416;SDS011;703;51.162;13.574;2024-02-04T08:02:12;2.23;;;2.13;;
1416;SDS011;703;51.162;13.574;2024-02-04T08:04:41;3.00;;;2.70;;
1416;SDS011;703;51.162;13.574;2024-02-04T08:07:07;2.13;;;2.03;;
1416;SDS011;703;51.162;13.574;2024-02-04T08:09:33;1.97;;;1.87;;
1416;SDS011;703;51.162;13.574;2024-02-04T08:11:59;1.93;;;1.83;;
1416;SDS011;703;51.162;13.574;2024-02-04T08:14:25;3.20;;;3.00;;
1416;SDS011;703;51.162;13.574;2024-02-04T08:16:51;2.33;;;2.23;;
1416;SDS011;703;51.162;13.574;2024-02-04T08:19:17;2.40;;;2.30;;
1416;SDS011;703;51.162;13.574;2024-02-04T08:21:43;3.07;;;2.97;;
1416;SDS011;703;51.162;13.574;2024-02-04T08:24:09;2.80;;;2.63;;
1416;SDS011;703;51.162;13.574;2024-02-04T08:26:37;2.83;;;2.60;;
1416;SDS011;703;51.162;13.574;2024-02-04T08:29:03;2.70;;;2.50;;
1416;SDS011;703;51.162;13.574;2024-02-04T08:31:30;1.83;;;1.73;;
1416;SDS011;703;51.162;13.574;2024-02-04T08:33:56;2.80;;;2.60;;
1416;SDS011;703;51.162;13.574;2024-02-04T08:36:22;3.00;;;2.77;;
1416;SDS011;703;51.162;13.574;2024-02-04T08:38:48;2.83;;;2.63;;
1416;SDS011;703;51.162;13.574;2024-02-04T08:41:13;4.10;;;3.80;;
1416;SDS011;703;51.162;13.574;2024-02-04T08:43:39;2.83;;;2.63;;
1416;SDS011;703;51.162;13.574;2024-02-04T08:46:05;2.57;;;2.43;;
1416;SDS011;703;51.162;13.574;2024-02-04T08:48:31;2.37;;;2.27;;
1416;SDS011;703;51.162;13.574;2024-02-04T08:50:57;2.70;;;2.60;;
1416;SDS011;703;51.162;13.574;2024-02-04T08:53:26;2.90;;;2.70;;
1416;SDS011;703;51.162;13.574;2024-02-04T08:55:52;2.70;;;2.50;;
1416;SDS011;703;51.162;13.574;2024-02-04T08:58:18;2.20;;;2.10;;
1416;SDS011;703;51.162;13.574;2024-02-04T09:00:44;2.63;;;2.40;;
1416;SDS011;703;51.162;13.574;2024-02-04T09:03:10;3.60;;;2.83;;
1416;SDS011;703;51.162;13.574;2024-02-04T09:05:36;2.13;;;2.00;;
1416;SDS011;703;51.162;13.574;2024-02-04T09:08:02;2.20;;;2.10;;
1416;SDS011;703;51.162;13.574;2024-02-04T09:10:27;2.27;;;2.17;;
1416;SDS011;703;51.162;13.574;2024-02-04T09:12:53;2.50;;;2.40;;
1416;SDS011;703;51.162;13.574;2024-02-04T09:15:19;2.30;;;2.20;;
1416;SDS011;703;51.162;13.574;2024-02-04T09:17:45;3.70;;;3.17;;
1416;SDS011;703;51.162;13.574;2024-02-04T09:20:11;2.83;;;2.63;;
1416;SDS011;703;51.162;13.574;2024-02-04T09:22:37;2.83;;;2.70;;
1416;SDS011;703;51.162;13.574;2024-02-04T09:25:04;2.70;;;2.50;;
1416;SDS011;703;51.162;13.574;2024-02-04T09:27:30;3.40;;;3.20;;
1416;SDS011;703;51.162;13.574;2024-02-04T09:29:56;4.80;;;4.40;;
1416;SDS011;703;51.162;13.574;2024-02-04T09:32:23;5.27;;;4.77;;
1416;SDS011;703;51.162;13.574;2024-02-04T09:34:49;3.33;;;3.13;;
1416;SDS011;703;51.162;13.574;2024-02-04T09:37:15;2.87;;;2.67;;
1416;SDS011;703;51.162;13.574;2024-02-04T09:39:41;3.20;;;3.00;;
1416;SDS011;703;51.162;13.574;2024-02-04T09:42:08;2.30;;;2.10;;
1416;SDS011;703;51.162;13.574;2024-02-04T09:44:34;2.10;;;2.00;;
1416;SDS011;703;51.162;13.574;2024-02-04T09:47:01;2.33;;;2.23;;
1416;SDS011;703;51.162;13.574;2024-02-04T09:49:27;2.53;;;2.43;;
1416;SDS011;703;51.162;13.574;2024-02-04T09:51:53;2.23;;;2.13;;
1416;SDS011;703;51.162;13.574;2024-02-04T09:54:20;2.53;;;2.43;;
1416;SDS011;703;51.162;13.574;2024-02-04T09:56:47;2.80;;;2.60;;
1416;SDS011;703;51.162;13.574;2024-02-04T09:59:15;3.03;;;2.83;;
1416;SDS011;703;51.162;13.574;2024-02-04T10:01:41;2.37;;;2.23;;
1416;SDS011;703;51.162;13.574;2024-02-04T10:04:09;2.00;;;1.90;;
1416;SDS011;703;51.162;13.574;2024-02-04T10:06:35;2.20;;;2.10;;
1416;SDS011;703;51.162;13.574;2024-02-04T10:09:01;2.00;;;1.90;;
1416;SDS011;703;51.162;13.574;2024-02-04T10:11:27;2.67;;;2.47;;
1416;SDS011;703;51.162;13.574;2024-02-04T10:13:53;4.07;;;3.77;;
1416;SDS011;703;51.162;13.574;2024-02-04T10:16:19;2.33;;;2.20;;
1416;SDS011;703;51.162;13.574;2024-02-04T10:18:46;2.93;;;2.70;;
1416;SDS011;703;51.162;13.574;2024-02-04T10:21:16;2.70;;;2.50;;
1416;SDS011;703;51.162;13.574;2024-02-04T10:23:43;2.57;;;2.47;;
1416;SDS011;703;51.162;13.574;2024-02-04T10:26:09;2.40;;;2.30;;
1416;SDS011;703;51.162;13.574;2024-02-04T10:28:36;4.43;;;3.27;;
1416;SDS011;703;51.162;13.574;2024-02-04T10:31:02;2.43;;;2.23;;
1416;SDS011;703;51.162;13.574;2024-02-04T10:33:31;2.43;;;2.27;;
1416;SDS011;703;51.162;13.574;2024-02-04T10:35:57;4.07;;;3.77;;
1416;SDS011;703;51.162;13.574;2024-02-04T10:38:23;2.73;;;2.53;;
1416;SDS011;703;51.162;13.574;2024-02-04T10:40:50;3.03;;;2.83;;
1416;SDS011;703;51.162;13.574;2024-02-04T10:43:18;2.57;;;2.47;;
1416;SDS011;703;51.162;13.574;2024-02-04T10:45:44;3.80;;;3.53;;
1416;SDS011;703;51.162;13.574;2024-02-04T10:48:10;4.90;;;4.50;;
1416;SDS011;703;51.162;13.574;2024-02-04T10:50:37;3.30;;;3.10;;
1416;SDS011;703;51.162;13.574;2024-02-04T10:53:04;4.27;;;3.97;;
1416;SDS011;703;51.162;13.574;2024-02-04T10:55:32;2.97;;;2.77;;
1416;SDS011;703;51.162;13.574;2024-02-04T10:57:59;2.93;;;2.70;;
1416;SDS011;703;51.162;13.574;2024-02-04T11:00:25;3.70;;;3.50;;
1416;SDS011;703;51.162;13.574;2024-02-04T11:02:52;6.60;;;3.30;;
1416;SDS011;703;51.162;13.574;2024-02-04T11:05:19;3.00;;;2.80;;
1416;SDS011;703;51.162;13.574;2024-02-04T11:07:45;4.23;;;3.60;;
1416;SDS011;703;51.162;13.574;2024-02-04T11:10:14;8.63;;;4.70;;
1416;SDS011;703;51.162;13.574;2024-02-04T11:12:40;4.20;;;3.60;;
1416;SDS011;703;51.162;13.574;2024-02-04T11:15:07;3.20;;;3.00;;
1416;SDS011;703;51.162;13.574;2024-02-04T11:20:23;4.30;;;3.40;;
1416;SDS011;703;51.162;13.574;2024-02-04T11:25:41;3.87;;;3.57;;
1416;SDS011;703;51.162;13.574;2024-02-04T11:28:11;3.70;;;3.40;;
1416;SDS011;703;51.162;13.574;2024-02-04T11:30:38;3.00;;;2.80;;
1416;SDS011;703;51.162;13.574;2024-02-04T11:33:04;6.40;;;3.40;;
1416;SDS011;703;51.162;13.574;2024-02-04T11:35:30;3.00;;;2.80;;
1416;SDS011;703;51.162;13.574;2024-02-04T11:37:57;3.27;;;3.07;;
1416;SDS011;703;51.162;13.574;2024-02-04T11:40:23;3.13;;;2.87;;
1416;SDS011;703;51.162;13.574;2024-02-04T11:42:49;2.60;;;2.40;;
1416;SDS011;703;51.162;13.574;2024-02-04T11:45:15;2.23;;;2.13;;
1416;SDS011;703;51.162;13.574;2024-02-04T11:47:42;3.40;;;2.90;;
1416;SDS011;703;51.162;13.574;2024-02-04T11:50:08;3.13;;;2.90;;
1416;SDS011;703;51.162;13.574;2024-02-04T11:52:34;3.50;;;3.30;;
1416;SDS011;703;51.162;13.574;2024-02-04T11:55:01;3.30;;;3.00;;
1416;SDS011;703;51.162;13.574;2024-02-04T11:57:29;3.40;;;3.20;;
1416;SDS011;703;51.162;13.574;2024-02-04T11:59:58;4.60;;;4.20;;
1416;SDS011;703;51.162;13.574;2024-02-04T12:02:26;3.20;;;3.00;;
1416;SDS011;703;51.162;13.574;2024-02-04T12:04:54;8.20;;;4.40;;
1416;SDS011;703;51.162;13.574;2024-02-04T12:07:20;2.83;;;2.73;;
1416;SDS011;703;51.162;13.574;2024-02-04T12:09:46;2.60;;;2.40;;
1416;SDS011;703;51.162;13.574;2024-02-04T12:12:13;4.10;;;3.80;;
1416;SDS011;703;51.162;13.574;2024-02-04T12:14:40;2.90;;;2.70;;
1416;SDS011;703;51.162;13.574;2024-02-04T12:17:07;3.47;;;3.20;;
1416;SDS011;703;51.162;13.574;2024-02-04T12:19:34;3.40;;;3.20;;
1416;SDS011;703;51.162;13.574;2024-02-04T12:22:00;3.10;;;2.90;;
1416;SDS011;703;51.162;13.574;2024-02-04T12:24:26;2.80;;;2.60;;
1416;SDS011;703;51.162;13.574;2024-02-04T12:26:52;3.90;;;3.00;;
1416;SDS011;703;51.162;13.574;2024-02-04T12:29:18;3.80;;;2.90;;
1416;SDS011;703;51.162;13.574;2024-02-04T12:31:44;4.30;;;3.97;;
1416;SDS011;703;51.162;13.574;2024-02-04T12:34:10;5.07;;;4.60;;
1416;SDS011;703;51.162;13.574;2024-02-04T12:59:52;4.93;;;4.43;;
1416;SDS011;703;51.162;13.574;2024-02-04T13:02:17;8.73;;;4.87;;
1416;SDS011;703;51.162;13.574;2024-02-04T13:04:43;4.07;;;3.77;;
1416;SDS011;703;51.162;13.574;2024-02-04T13:07:10;4.53;;;4.10;;
1416;SDS011;703;51.162;13.574;2024-02-04T13:09:43;6.00;;;5.50;;
1416;SDS011;703;51.162;13.574;2024-02-04T13:12:10;6.23;;;4.00;;
1416;SDS011;703;51.162;13.574;2024-02-04T13:14:36;44.17;;;5.63;;
1416;SDS011;703;51.162;13.574;2024-02-04T13:17:06;10.37;;;4.77;;
1416;SDS011;703;51.162;13.574;2024-02-04T13:19:32;6.57;;;3.50;;
1416;SDS011;703;51.162;13.574;2024-02-04T13:22:02;3.83;;;3.30;;
1416;SDS011;703;51.162;13.574;2024-02-04T13:24:29;5.07;;;4.60;;
1416;SDS011;703;51.162;13.574;2024-02-04T13:26:55;4.30;;;4.00;;
1416;SDS011;703;51.162;13.574;2024-02-04T13:29:21;3.50;;;3.20;;
1416;SDS011;703;51.162;13.574;2024-02-04T13:31:46;5.10;;;4.00;;
1416;SDS011;703;51.162;13.574;2024-02-04T13:34:15;3.77;;;3.57;;
1416;SDS011;703;51.162;13.574;2024-02-04T13:36:41;6.03;;;4.17;;
1416;SDS011;703;51.162;13.574;2024-02-04T13:39:08;4.47;;;4.07;;
1416;SDS011;703;51.162;13.574;2024-02-04T13:41:33;5.83;;;5.43;;
1416;SDS011;703;51.162;13.574;2024-02-04T13:44:02;5.23;;;4.83;;
1416;SDS011;703;51.162;13.574;2024-02-04T13:46:28;4.40;;;4.07;;
1416;SDS011;703;51.162;13.574;2024-02-04T13:48:54;4.77;;;4.37;;
1416;SDS011;703;51.162;13.574;2024-02-04T13:51:20;3.90;;;3.60;;
1416;SDS011;703;51.162;13.574;2024-02-04T13:53:46;4.00;;;3.70;;
1416;SDS011;703;51.162;13.574;2024-02-04T13:56:16;3.27;;;3.17;;
1416;SDS011;703;51.162;13.574;2024-02-04T13:58:48;3.90;;;3.60;;
1416;SDS011;703;51.162;13.574;2024-02-04T14:01:14;3.90;;;3.63;;
1416;SDS011;703;51.162;13.574;2024-02-04T14:03:40;4.63;;;4.23;;
1416;SDS011;703;51.162;13.574;2024-02-04T14:06:06;4.90;;;4.50;;
1416;SDS011;703;51.162;13.574;2024-02-04T14:08:32;2.80;;;2.60;;
1416;SDS011;703;51.162;13.574;2024-02-04T14:10:58;5.30;;;3.80;;
1416;SDS011;703;51.162;13.574;2024-02-04T14:13:24;3.97;;;3.57;;
1416;SDS011;703;51.162;13.574;2024-02-04T14:15:49;3.80;;;3.23;;
1416;SDS011;703;51.162;13.574;2024-02-04T14:18:15;4.20;;;3.90;;
1416;SDS011;703;51.162;13.574;2024-02-04T14:20:41;4.10;;;3.80;;
1416;SDS011;703;51.162;13.574;2024-02-04T14:23:06;4.07;;;3.77;;
1416;SDS011;703;51.162;13.574;2024-02-04T14:25:33;3.53;;;3.33;;
1416;SDS011;703;51.162;13.574;2024-02-04T14:27:59;4.00;;;3.60;;
1416;SDS011;703;51.162;13.574;2024-02-04T14:30:25;3.90;;;3.60;;
1416;SDS011;703;51.162;13.574;2024-02-04T14:32:50;5.07;;;4.70;;
1416;SDS011;703;51.162;13.574;2024-02-04T14:35:16;3.90;;;3.60;;
1416;SDS011;703;51.162;13.574;2024-02-04T14:37:42;3.90;;;3.70;;
1416;SDS011;703;51.162;13.574;2024-02-04T14:40:08;5.17;;;4.73;;
1416;SDS011;703;51.162;13.574;2024-02-04T14:42:34;5.73;;;5.23;;
1416;SDS011;703;51.162;13.574;2024-02-04T14:44:59;4.37;;;4.17;;
1416;SDS011;703;51.162;13.574;2024-02-04T14:47:26;4.40;;;4.10;;
1416;SDS011;703;51.162;13.574;2024-02-04T14:49:52;4.73;;;4.37;;
1416;SDS011;703;51.162;13.574;2024-02-04T14:52:18;4.37;;;3.93;;
1416;SDS011;703;51.162;13.574;2024-02-04T14:54:43;5.53;;;5.10;;
1416;SDS011;703;51.162;13.574;2024-02-04T14:57:09;8.60;;;7.90;;
1416;SDS011;703;51.162;13.574;2024-02-04T14:59:34;5.33;;;4.50;;
1416;SDS011;703;51.162;13.574;2024-02-04T15:02:02;12.73;;;4.40;;
1416;SDS011;703;51.162;13.574;2024-02-04T15:04:30;6.00;;;5.60;;
1416;SDS011;703;51.162;13.574;2024-02-04T15:06:59;5.80;;;5.40;;
1416;SDS011;703;51.162;13.574;2024-02-04T15:09:28;4.37;;;4.03;;
1416;SDS011;703;51.162;13.574;2024-02-04T15:11:55;4.33;;;4.03;;
1416;SDS011;703;51.162;13.574;2024-02-04T15:14:21;4.80;;;4.50;;
1416;SDS011;703;51.162;13.574;2024-02-04T15:16:47;5.07;;;4.67;;
1416;SDS011;703;51.162;13.574;2024-02-04T15:19:14;5.40;;;5.10;;
1416;SDS011;703;51.162;13.574;2024-02-04T15:21:39;5.07;;;4.70;;
1416;SDS011;703;51.162;13.574;2024-02-04T15:24:05;5.63;;;4.50;;
1416;SDS011;703;51.162;13.574;2024-02-04T15:26:34;3.90;;;3.60;;
1416;SDS011;703;51.162;13.574;2024-02-04T15:29:05;3.53;;;3.33;;
1416;SDS011;703;51.162;13.574;2024-02-04T15:31:31;5.83;;;4.77;;
1416;SDS011;703;51.162;13.574;2024-02-04T15:34:00;4.47;;;4.10;;
1416;SDS011;703;51.162;13.574;2024-02-04T15:36:29;10.73;;;4.70;;
1416;SDS011;703;51.162;13.574;2024-02-04T15:38:57;4.80;;;4.50;;
1416;SDS011;703;51.162;13.574;2024-02-04T15:41:22;4.53;;;4.13;;